createdAt,value
2019-03-19T00:03:06.490Z,101068.41
2019-03-19T00:04:10.413Z,101064.00
2019-03-19T00:05:14.745Z,101070.33
2019-03-19T00:06:37.938Z,101076.19
2019-03-19T00:08:01.290Z,101073.57
2019-03-19T00:09:24.826Z,101078.55
2019-03-19T00:10:47.773Z,101076.79
2019-03-19T00:11:52.265Z,101080.91
2019-03-19T00:13:15.830Z,101078.69
2019-03-19T00:14:20.032Z,101081.38
2019-03-19T00:15:43.052Z,101083.21
2019-03-19T00:16:47.129Z,101087.25
2019-03-19T00:17:51.256Z,101084.56
2019-03-19T00:18:55.909Z,101085.47
2019-03-19T00:20:00.398Z,101089.51
2019-03-19T00:21:04.232Z,101087.73
2019-03-19T00:22:08.381Z,101089.97
2019-03-19T00:23:12.733Z,101096.27
2019-03-19T00:24:16.876Z,101093.11
2019-03-19T00:25:29.456Z,101097.66
2019-03-19T00:26:26.834Z,101088.70
2019-03-19T00:27:30.656Z,101089.59
2019-03-19T00:28:35.001Z,101095.86
2019-03-19T00:29:39.334Z,101095.86
2019-03-19T00:30:43.311Z,101094.97
2019-03-19T00:31:47.204Z,101096.77
2019-03-19T00:32:51.025Z,101102.61
2019-03-19T00:34:14.156Z,101103.52
2019-03-19T00:35:37.491Z,101096.83
2019-03-19T00:37:00.313Z,101095.51
2019-03-19T00:38:04.883Z,101100.09
2019-03-19T00:39:09.053Z,101103.72
2019-03-19T00:40:13.381Z,101095.24
2019-03-19T00:41:36.258Z,101100.19
2019-03-19T00:42:59.870Z,101102.88
2019-03-19T00:44:23.426Z,101109.61
2019-03-19T00:45:27.617Z,101107.83
2019-03-19T00:46:32.345Z,101112.33
2019-03-19T00:47:36.760Z,101114.11
2019-03-19T00:49:00.371Z,101115.00
2019-03-19T00:50:43.956Z,101110.96
2019-03-19T00:52:07.833Z,101106.92
2019-03-19T00:53:12.208Z,101108.27
2019-03-19T00:54:36.196Z,101100.67
2019-03-19T00:55:59.548Z,101082.01
2019-03-19T00:59:04.748Z,101106.92
2019-03-19T01:01:52.532Z,101110.11
2019-03-19T01:02:57.009Z,101105.18
2019-03-19T01:04:01.449Z,101103.42
2019-03-19T01:05:45.225Z,101105.27
2019-03-19T01:07:08.429Z,101109.33
2019-03-19T01:08:31.450Z,101100.45
2019-03-19T01:09:54.481Z,101094.21
2019-03-19T01:11:17.976Z,101093.80
2019-03-19T01:12:41.344Z,101095.16
2019-03-19T01:15:48.463Z,101097.94
2019-03-19T01:16:52.961Z,101096.17
2019-03-19T01:17:57.027Z,101092.64
2019-03-19T01:19:01.602Z,101097.58
2019-03-19T01:20:06.417Z,101101.10
2019-03-19T01:21:10.243Z,101105.58
2019-03-19T01:22:14.077Z,101106.44
2019-03-19T01:23:18.141Z,101100.09
2019-03-19T01:24:22.218Z,101101.87
2019-03-19T01:25:26.396Z,101102.74
2019-03-19T01:26:30.472Z,101098.67
2019-03-19T01:27:34.809Z,101100.85
2019-03-19T01:28:39.377Z,101101.74
2019-03-19T01:29:44.195Z,101102.61
2019-03-19T01:30:48.092Z,101102.59
2019-03-19T01:31:52.415Z,101103.03
2019-03-19T01:32:56.876Z,101103.02
2019-03-19T01:34:00.949Z,101101.61
2019-03-19T01:35:05.539Z,101103.39
2019-03-19T01:36:09.428Z,101105.18
2019-03-19T01:37:13.514Z,101103.36
2019-03-19T01:38:17.908Z,101103.80
2019-03-19T01:39:22.055Z,101104.67
2019-03-19T01:40:26.129Z,101100.63
2019-03-19T01:41:30.646Z,101108.20
2019-03-19T01:42:53.889Z,101109.98
2019-03-19T01:43:58.564Z,101103.25
2019-03-19T01:45:21.513Z,101102.80
2019-03-19T01:46:44.788Z,101103.69
2019-03-19T01:48:08.356Z,101104.59
2019-03-19T01:49:12.532Z,101104.16
2019-03-19T01:50:35.792Z,101103.72
2019-03-19T01:53:22.285Z,101106.50
2019-03-19T01:54:26.365Z,101099.89
2019-03-19T01:55:30.197Z,101098.58
2019-03-19T01:56:53.248Z,101102.20
2019-03-19T01:57:58.006Z,101100.92
2019-03-19T01:59:02.157Z,101097.40
2019-03-19T02:00:07.115Z,101097.48
2019-03-19T02:01:11.189Z,101099.78
2019-03-19T02:02:15.329Z,101102.98
2019-03-19T02:03:19.660Z,101108.41
2019-03-19T02:04:23.981Z,101113.80
2019-03-19T02:05:28.133Z,101104.47
2019-03-19T02:06:31.957Z,101113.47
2019-03-19T02:07:36.036Z,101111.28
2019-03-19T02:08:40.434Z,101113.09
2019-03-19T02:09:44.507Z,101109.97
2019-03-19T02:10:48.577Z,101107.31
2019-03-19T02:11:52.905Z,101107.81
2019-03-19T02:12:57.307Z,101114.13
2019-03-19T02:14:01.448Z,101111.01
2019-03-19T02:15:05.907Z,101112.37
2019-03-19T02:16:10.240Z,101111.97
2019-03-19T02:17:14.390Z,101107.50
2019-03-19T02:18:18.295Z,101114.69
2019-03-19T02:19:22.366Z,101115.16
2019-03-19T02:20:26.577Z,101113.38
2019-03-19T02:21:30.402Z,101116.52
2019-03-19T02:22:35.074Z,101116.06
2019-03-19T02:23:39.469Z,101114.28
2019-03-19T02:24:43.627Z,101110.68
2019-03-19T02:25:47.451Z,101112.02
2019-03-19T02:26:52.014Z,101112.02
2019-03-19T02:28:15.577Z,101114.27
2019-03-19T02:29:39.216Z,101106.20
2019-03-19T02:30:43.342Z,101111.18
2019-03-19T02:32:07.028Z,101114.80
2019-03-19T02:33:30.321Z,101118.39
2019-03-19T02:34:53.194Z,101114.38
2019-03-19T02:40:14.534Z,101117.23
2019-03-19T02:41:18.549Z,101115.92
2019-03-19T02:42:22.862Z,101118.72
2019-03-19T02:43:27.124Z,101121.03
2019-03-19T02:44:31.553Z,101125.06
2019-03-19T02:45:35.484Z,101120.59
2019-03-19T02:46:39.669Z,101120.16
2019-03-19T02:47:43.780Z,101124.20
2019-03-19T02:48:47.905Z,101132.71
2019-03-19T02:49:52.146Z,101132.72
2019-03-19T02:50:56.574Z,101130.53
2019-03-19T02:52:01.073Z,101135.48
2019-03-19T02:53:05.087Z,101136.38
2019-03-19T02:54:08.946Z,101126.55
2019-03-19T02:55:13.213Z,101130.62
2019-03-19T02:56:32.033Z,101132.43
2019-03-19T02:57:23.052Z,101138.27
2019-03-19T02:58:27.274Z,101138.73
2019-03-19T02:59:31.480Z,101142.37
2019-03-19T03:00:35.480Z,101147.75
2019-03-19T03:01:39.476Z,101148.22
2019-03-19T03:02:43.736Z,101157.62
2019-03-19T03:03:48.475Z,101160.77
2019-03-19T03:04:52.739Z,101158.13
2019-03-19T03:05:56.694Z,101165.75
2019-03-19T03:07:00.680Z,101168.89
2019-03-19T03:08:04.695Z,101171.55
2019-03-19T03:09:08.710Z,101168.03
2019-03-19T03:10:13.137Z,101167.14
2019-03-19T03:11:17.069Z,101163.58
2019-03-19T03:12:21.253Z,101164.48
2019-03-19T03:13:25.744Z,101162.74
2019-03-19T03:14:29.769Z,101156.04
2019-03-19T03:15:33.688Z,101164.55
2019-03-19T03:16:37.708Z,101165.00
2019-03-19T03:17:41.946Z,101163.71
2019-03-19T03:18:45.950Z,101167.74
2019-03-19T03:19:49.887Z,101164.61
2019-03-19T03:20:53.815Z,101172.69
2019-03-19T03:21:57.997Z,101163.74
2019-03-19T03:23:01.917Z,101173.63
2019-03-19T03:24:05.923Z,101173.64
2019-03-19T03:25:10.061Z,101180.36
2019-03-19T03:26:14.238Z,101175.00
2019-03-19T03:27:18.228Z,101181.76
2019-03-19T03:28:22.420Z,101179.53
2019-03-19T03:29:26.349Z,101180.44
2019-03-19T03:30:30.353Z,101180.89
2019-03-19T03:31:34.327Z,101190.78
2019-03-19T03:32:38.604Z,101184.08
2019-03-19T03:33:42.465Z,101187.22
2019-03-19T03:34:46.515Z,101187.27
2019-03-19T03:35:50.739Z,101193.53
2019-03-19T03:36:54.653Z,101198.91
2019-03-19T03:37:58.785Z,101198.91
2019-03-19T03:39:02.879Z,101211.03
2019-03-19T03:40:08.152Z,101202.53
2019-03-19T03:41:12.084Z,101211.48
2019-03-19T03:42:16.019Z,101208.36
2019-03-19T03:43:20.025Z,101201.64
2019-03-19T03:44:24.266Z,101206.13
2019-03-19T03:45:28.722Z,101201.20
2019-03-19T03:46:33.236Z,101206.57
2019-03-19T03:47:37.502Z,101205.27
2019-03-19T03:48:41.491Z,101206.61
2019-03-19T03:49:45.667Z,101210.64
2019-03-19T03:50:49.534Z,101207.95
2019-03-19T03:51:53.792Z,101216.46
2019-03-19T03:52:57.974Z,101216.02
2019-03-19T03:54:02.091Z,101219.15
2019-03-19T03:55:06.790Z,101225.45
2019-03-19T03:56:11.150Z,101223.22
2019-03-19T03:57:15.400Z,101225.01
2019-03-19T03:58:19.343Z,101225.91
2019-03-19T03:59:23.261Z,101225.46
2019-03-19T04:00:27.534Z,101225.94
2019-03-19T04:01:31.797Z,101224.61
2019-03-19T04:02:36.542Z,101225.50
2019-03-19T04:03:40.541Z,101229.08
2019-03-19T04:04:44.545Z,101222.83
2019-03-19T04:05:48.578Z,101227.30
2019-03-19T04:06:52.591Z,101226.89
2019-03-19T04:07:57.031Z,101225.10
2019-03-19T04:09:01.201Z,101222.87
2019-03-19T04:10:06.269Z,101228.27
2019-03-19T04:11:10.538Z,101226.92
2019-03-19T04:12:14.802Z,101223.80
2019-03-19T04:13:19.047Z,101228.27
2019-03-19T04:14:23.310Z,101228.27
2019-03-19T04:15:27.500Z,101224.25
2019-03-19T04:16:31.427Z,101232.30
2019-03-19T04:17:35.432Z,101234.53
2019-03-19T04:18:39.682Z,101236.36
2019-03-19T04:19:43.625Z,101234.56
2019-03-19T04:20:47.490Z,101239.03
2019-03-19T04:21:51.343Z,101233.67
2019-03-19T04:22:55.274Z,101231.44
2019-03-19T04:23:59.528Z,101231.00
2019-03-19T04:25:03.532Z,101235.50
2019-03-19T04:26:07.708Z,101247.12
2019-03-19T04:27:16.177Z,101245.78
2019-03-19T04:28:17.359Z,101248.45
2019-03-19T04:29:21.362Z,101246.67
2019-03-19T04:30:25.358Z,101246.67
2019-03-19T04:31:29.300Z,101251.14
2019-03-19T04:32:33.156Z,101247.12
2019-03-19T04:33:37.338Z,101252.03
2019-03-19T04:34:41.271Z,101256.50
2019-03-19T04:35:45.528Z,101264.99
2019-03-19T04:36:49.476Z,101266.37
2019-03-19T04:37:53.413Z,101268.59
2019-03-19T04:38:57.738Z,101275.75
2019-03-19T04:40:01.851Z,101277.98
2019-03-19T04:41:05.837Z,101278.43
2019-03-19T04:42:09.779Z,101283.34
2019-03-19T04:43:14.023Z,101272.62
2019-03-19T04:44:17.952Z,101279.77
2019-03-19T04:45:21.953Z,101275.74
2019-03-19T04:46:25.813Z,101274.44
2019-03-19T04:47:30.239Z,101281.55
2019-03-19T04:48:34.162Z,101283.81
2019-03-19T04:49:38.013Z,101278.91
2019-03-19T04:50:41.857Z,101286.91
2019-03-19T04:51:46.119Z,101286.50
2019-03-19T04:52:50.630Z,101292.75
2019-03-19T04:53:54.567Z,101293.64
2019-03-19T04:54:58.480Z,101292.75
2019-03-19T04:56:02.563Z,101295.44
2019-03-19T04:57:07.348Z,101290.52
2019-03-19T04:58:11.598Z,101298.11
2019-03-19T04:59:15.847Z,101300.77
2019-03-19T05:00:20.107Z,101304.78
2019-03-19T05:01:24.354Z,101300.31
2019-03-19T05:02:28.630Z,101306.57
2019-03-19T05:03:32.559Z,101307.47
2019-03-19T05:04:36.488Z,101300.77
2019-03-19T05:05:40.503Z,101298.09
2019-03-19T05:06:44.677Z,101270.43
2019-03-19T05:07:48.698Z,101302.55
2019-03-19T05:08:52.626Z,101305.69
2019-03-19T05:09:56.736Z,101299.88
2019-03-19T05:11:00.738Z,101294.96
2019-03-19T05:12:04.750Z,101303.00
2019-03-19T05:13:08.997Z,101302.56
2019-03-19T05:14:12.927Z,101307.47
2019-03-19T05:15:17.178Z,101310.59
2019-03-19T05:16:21.345Z,101312.38
2019-03-19T05:17:25.360Z,101313.73
2019-03-19T05:18:31.377Z,101308.81
2019-03-19T05:19:35.910Z,101315.52
2019-03-19T05:20:40.020Z,101311.05
2019-03-19T05:21:44.194Z,101317.33
2019-03-19T05:22:48.150Z,101313.31
2019-03-19T05:23:52.497Z,101311.52
2019-03-19T05:24:56.679Z,101316.88
2019-03-19T05:26:00.976Z,101320.91
2019-03-19T05:27:04.969Z,101317.77
2019-03-19T05:28:09.150Z,101321.34
2019-03-19T05:29:13.158Z,101322.24
2019-03-19T05:30:17.164Z,101318.66
2019-03-19T05:31:21.425Z,101318.22
2019-03-19T05:32:25.376Z,101326.23
2019-03-19T05:33:29.555Z,101317.33
2019-03-19T05:34:33.475Z,101316.44
2019-03-19T05:35:37.739Z,101312.41
2019-03-19T05:36:41.671Z,101315.53
2019-03-19T05:37:45.949Z,101322.23
2019-03-19T05:38:50.390Z,101326.26
2019-03-19T05:39:54.515Z,101324.92
2019-03-19T05:40:58.443Z,101324.03
2019-03-19T05:42:02.546Z,101321.80
2019-03-19T05:43:06.511Z,101322.20
2019-03-19T05:44:10.667Z,101323.55
2019-03-19T05:45:14.692Z,101323.11
2019-03-19T05:46:18.685Z,101327.12
2019-03-19T05:47:23.191Z,101328.05
2019-03-19T05:48:27.419Z,101325.78
2019-03-19T05:49:31.529Z,101325.37
2019-03-19T05:50:35.465Z,101324.45
2019-03-19T05:51:39.696Z,101331.15
2019-03-19T05:52:43.709Z,101327.12
2019-03-19T05:53:48.146Z,101325.34
2019-03-19T05:54:52.259Z,101329.81
2019-03-19T05:55:56.519Z,101333.84
2019-03-19T05:57:00.895Z,101332.49
2019-03-19T05:58:04.997Z,101326.69
2019-03-19T05:59:09.191Z,101334.73
2019-03-19T06:00:13.787Z,101336.08
2019-03-19T06:01:17.801Z,101335.15
2019-03-19T06:02:21.738Z,101340.52
2019-03-19T06:03:25.850Z,101343.64
2019-03-19T06:04:30.360Z,101348.11
2019-03-19T06:05:35.727Z,101346.30
2019-03-19T06:06:39.978Z,101352.12
2019-03-19T06:07:43.982Z,101354.77
2019-03-19T06:08:48.260Z,101348.52
2019-03-19T06:09:52.443Z,101349.83
2019-03-19T06:10:56.623Z,101348.49
2019-03-19T06:12:01.490Z,101351.14
2019-03-19T06:13:05.532Z,101358.75
2019-03-19T06:14:10.011Z,101355.58
2019-03-19T06:15:14.028Z,101356.45
2019-03-19T06:16:18.213Z,101349.73
2019-03-19T06:17:22.217Z,101352.83
2019-03-19T06:18:34.743Z,101349.66
2019-03-19T06:19:32.728Z,101349.62
2019-03-19T06:20:36.734Z,101347.82
2019-03-19T06:21:40.946Z,101352.70
2019-03-19T06:22:44.951Z,101365.23
2019-03-19T06:23:49.423Z,101365.19
2019-03-19T06:24:53.537Z,101360.70
2019-03-19T06:25:57.385Z,101365.14
2019-03-19T06:27:01.494Z,101370.06
2019-03-19T06:28:05.741Z,101358.38
2019-03-19T06:29:09.757Z,101366.42
2019-03-19T06:30:15.507Z,101361.45
2019-03-19T06:31:19.440Z,101362.34
2019-03-19T06:32:23.449Z,101354.27
2019-03-19T06:33:27.717Z,101363.20
2019-03-19T06:34:31.647Z,101366.75
2019-03-19T06:35:36.081Z,101361.80
2019-03-19T06:36:40.442Z,101372.51
2019-03-19T06:37:44.374Z,101368.03
2019-03-19T06:38:48.578Z,101372.05
2019-03-19T06:39:53.265Z,101379.16
2019-03-19T06:40:57.775Z,101380.95
2019-03-19T06:42:01.706Z,101375.13
2019-03-19T06:43:05.714Z,101375.52
2019-03-19T06:44:09.933Z,101371.93
2019-03-19T06:45:14.440Z,101371.92
2019-03-19T06:46:18.451Z,101373.22
2019-03-19T06:47:22.628Z,101376.34
2019-03-19T06:48:26.818Z,101373.20
2019-03-19T06:49:30.929Z,101374.98
2019-03-19T06:50:44.752Z,101372.74
2019-03-19T06:51:40.726Z,101373.19
2019-03-19T06:52:45.022Z,101381.70
2019-03-19T06:53:48.956Z,101383.45
2019-03-19T06:54:53.236Z,101379.87
2019-03-19T06:55:57.105Z,101390.16
2019-03-19T06:57:01.038Z,101384.78
2019-03-19T06:58:11.093Z,101386.11
2019-03-19T06:59:10.992Z,101389.64
2019-03-19T07:00:16.750Z,101387.84
2019-03-19T07:01:20.938Z,101390.92
2019-03-19T07:02:25.373Z,101389.55
2019-03-19T07:03:29.382Z,101385.47
2019-03-19T07:04:33.324Z,101391.72
2019-03-19T07:05:37.603Z,101395.25
2019-03-19T07:06:41.623Z,101397.92
2019-03-19T07:07:45.883Z,101392.08
2019-03-19T07:08:49.887Z,101400.09
2019-03-19T07:09:53.903Z,101400.98
2019-03-19T07:10:58.171Z,101406.34
2019-03-19T07:12:02.106Z,101403.59
2019-03-19T07:14:00.219Z,101407.17
2019-03-19T07:15:04.893Z,101411.19
2019-03-19T07:16:09.387Z,101412.48
2019-03-19T07:17:13.553Z,101406.20
2019-03-19T07:18:17.461Z,101408.88
2019-03-19T07:19:21.771Z,101407.52
2019-03-19T07:20:26.342Z,101408.86
2019-03-19T07:21:30.252Z,101408.81
2019-03-19T07:22:34.617Z,101407.45
2019-03-19T07:23:38.453Z,101403.83
2019-03-19T07:24:42.793Z,101402.88
2019-03-19T07:25:46.648Z,101399.73
2019-03-19T07:26:51.147Z,101404.14
2019-03-19T07:27:55.684Z,101406.36
2019-03-19T07:29:00.046Z,101407.69
2019-03-19T07:30:05.816Z,101408.52
2019-03-19T07:31:10.251Z,101409.39
2019-03-19T07:32:14.459Z,101405.28
2019-03-19T07:33:18.872Z,101406.61
2019-03-19T07:34:22.966Z,101412.81
2019-03-19T07:35:27.227Z,101412.32
2019-03-19T07:36:31.427Z,101415.84
2019-03-19T07:37:35.628Z,101412.66
2019-03-19T07:38:40.097Z,101417.98
2019-03-19T07:39:44.016Z,101410.80
2019-03-19T07:40:48.269Z,101414.36
2019-03-19T07:41:52.345Z,101414.80
2019-03-19T07:42:56.457Z,101411.66
2019-03-19T07:44:00.291Z,101415.27
2019-03-19T07:45:04.655Z,101414.36
2019-03-19T07:46:09.087Z,101421.94
2019-03-19T07:47:12.999Z,101420.58
2019-03-19T07:48:17.221Z,101421.44
2019-03-19T07:49:21.077Z,101413.73
2019-03-19T07:50:25.325Z,101417.28
2019-03-19T07:51:29.254Z,101411.37
2019-03-19T07:52:33.349Z,101413.11
2019-03-19T07:53:37.945Z,101418.88
2019-03-19T07:54:42.296Z,101415.27
2019-03-19T07:55:46.161Z,101417.44
2019-03-19T07:56:50.572Z,101421.47
2019-03-19T07:57:54.411Z,101423.22
2019-03-19T07:58:58.262Z,101415.51
2019-03-19T08:00:02.111Z,101419.48
2019-03-19T08:01:06.097Z,101419.38
2019-03-19T08:02:10.193Z,101421.98
2019-03-19T08:03:16.318Z,101414.33
2019-03-19T08:04:20.456Z,101412.87
2019-03-19T08:05:32.532Z,101416.84
2019-03-19T08:06:29.956Z,101414.52
2019-03-19T08:07:33.797Z,101425.66
2019-03-19T08:08:37.707Z,101426.98
2019-03-19T08:09:42.084Z,101423.77
2019-03-19T08:10:45.956Z,101430.10
2019-03-19T08:11:49.886Z,101431.92
2019-03-19T08:12:53.970Z,101427.02
2019-03-19T08:13:58.133Z,101431.53
2019-03-19T08:15:02.042Z,101434.66
2019-03-19T08:16:06.567Z,101435.97
2019-03-19T08:17:10.742Z,101435.44
2019-03-19T08:18:14.824Z,101438.56
2019-03-19T08:19:18.667Z,101443.03
2019-03-19T08:20:22.833Z,101438.45
2019-03-19T08:21:27.012Z,101433.92
2019-03-19T08:22:30.858Z,101442.89
2019-03-19T08:23:34.950Z,101444.17
2019-03-19T08:24:38.860Z,101447.30
2019-03-19T08:25:42.951Z,101438.77
2019-03-19T08:26:49.124Z,101445.52
2019-03-19T08:27:52.688Z,101442.89
2019-03-19T08:28:56.585Z,101448.33
2019-03-19T08:30:01.030Z,101445.21
2019-03-19T08:31:05.539Z,101443.05
2019-03-19T08:32:09.705Z,101444.84
2019-03-19T08:33:13.616Z,101445.30
2019-03-19T08:34:17.700Z,101446.20
2019-03-19T08:35:21.938Z,101447.09
2019-03-19T08:36:26.290Z,101443.48
2019-03-19T08:37:30.197Z,101444.38
2019-03-19T08:38:34.358Z,101442.13
2019-03-19T08:39:38.452Z,101439.00
2019-03-19T08:40:42.364Z,101443.59
2019-03-19T08:41:46.216Z,101443.67
2019-03-19T08:42:50.202Z,101447.86
2019-03-19T08:43:54.299Z,101446.13
2019-03-19T08:44:58.653Z,101446.69
2019-03-19T08:46:02.914Z,101443.18
2019-03-19T08:47:06.739Z,101445.94
2019-03-19T08:48:11.083Z,101443.78
2019-03-19T08:49:15.496Z,101440.68
2019-03-19T08:50:19.493Z,101444.35
2019-03-19T08:51:23.347Z,101443.03
2019-03-19T08:52:27.699Z,101439.05
2019-03-19T08:53:31.867Z,101439.05
2019-03-19T08:54:36.029Z,101439.12
2019-03-19T08:55:40.022Z,101436.92
2019-03-19T08:56:44.882Z,101448.61
2019-03-19T08:57:48.794Z,101444.13
2019-03-19T08:58:52.656Z,101457.14
2019-03-19T08:59:57.265Z,101453.99
2019-03-19T09:01:01.485Z,101456.23
2019-03-19T09:02:05.649Z,101450.34
2019-03-19T09:03:09.500Z,101458.86
2019-03-19T09:04:13.924Z,101445.86
2019-03-19T09:05:18.159Z,101453.53
2019-03-19T09:06:22.266Z,101449.88
2019-03-19T09:07:26.515Z,101431.59
2019-03-19T09:08:30.676Z,101447.09
2019-03-19T09:09:34.612Z,101447.95
2019-03-19T09:10:38.523Z,101451.01
2019-03-19T09:11:42.374Z,101454.94
2019-03-19T09:12:48.537Z,101459.39
2019-03-19T09:13:52.679Z,101461.55
2019-03-19T09:14:56.783Z,101461.48
2019-03-19T09:16:01.165Z,101454.22
2019-03-19T09:17:05.157Z,101462.69
2019-03-19T09:18:09.008Z,101462.62
2019-03-19T09:19:12.850Z,101461.16
2019-03-19T09:20:17.009Z,101463.31
2019-03-19T09:21:21.165Z,101458.78
2019-03-19T09:22:29.651Z,101458.23
2019-03-19T09:23:30.797Z,101461.30
2019-03-19T09:24:34.707Z,101463.87
2019-03-19T09:25:38.732Z,101461.52
2019-03-19T09:26:42.864Z,101462.83
2019-03-19T09:27:46.872Z,101465.43
2019-03-19T09:28:51.040Z,101461.72
2019-03-19T09:29:54.883Z,101467.95
2019-03-19T09:30:59.035Z,101466.52
2019-03-19T09:32:02.940Z,101465.56
2019-03-19T09:33:07.058Z,101461.39
2019-03-19T09:34:11.462Z,101475.68
2019-03-19T09:35:15.708Z,101468.41
2019-03-19T09:36:19.873Z,101467.84
2019-03-19T09:37:23.964Z,101461.91
2019-03-19T09:38:28.381Z,101461.78
2019-03-19T09:39:32.282Z,101463.46
2019-03-19T09:40:36.263Z,101458.38
2019-03-19T09:41:40.183Z,101457.44
2019-03-19T09:42:44.421Z,101450.61
2019-03-19T09:43:48.336Z,101457.69
2019-03-19T09:44:58.537Z,101461.15
2019-03-19T09:45:58.206Z,101456.92
2019-03-19T09:47:02.192Z,101458.20
2019-03-19T09:48:06.359Z,101456.25
2019-03-19T09:49:10.338Z,101461.02
2019-03-19T09:50:14.973Z,101455.50
2019-03-19T09:51:19.479Z,101461.16
2019-03-19T09:52:23.395Z,101461.91
2019-03-19T09:53:27.628Z,101459.95
2019-03-19T09:54:32.325Z,101457.06
2019-03-19T09:55:36.211Z,101463.58
2019-03-19T09:56:40.120Z,101452.16
2019-03-19T09:57:44.105Z,101443.92
2019-03-19T09:58:48.526Z,101453.70
2019-03-19T09:59:52.448Z,101440.16
2019-03-19T10:00:56.534Z,101446.44
2019-03-19T10:02:00.633Z,101456.38
2019-03-19T10:03:04.621Z,101456.83
2019-03-19T10:04:08.715Z,101448.25
2019-03-19T10:05:12.706Z,101455.88
2019-03-19T10:06:17.456Z,101457.09
2019-03-19T10:07:22.061Z,101456.08
2019-03-19T10:08:26.240Z,101459.15
2019-03-19T10:09:30.683Z,101457.66
2019-03-19T10:10:34.956Z,101456.54
2019-03-19T10:11:39.081Z,101455.94
2019-03-19T10:12:43.060Z,101461.98
2019-03-19T10:13:47.566Z,101457.34
2019-03-19T10:14:51.744Z,101459.38
2019-03-19T10:15:55.904Z,101453.36
2019-03-19T10:17:00.303Z,101450.47
2019-03-19T10:18:04.304Z,101451.14
2019-03-19T10:19:08.411Z,101457.34
2019-03-19T10:20:14.206Z,101453.14
2019-03-19T10:21:18.372Z,101453.48
2019-03-19T10:22:22.288Z,101446.25
2019-03-19T10:23:26.613Z,101446.64
2019-03-19T10:24:30.801Z,101452.02
2019-03-19T10:25:35.056Z,101450.16
2019-03-19T10:26:39.300Z,101446.06
2019-03-19T10:27:43.479Z,101451.38
2019-03-19T10:28:47.597Z,101451.52
2019-03-19T10:29:52.016Z,101445.25
2019-03-19T10:30:55.929Z,101451.52
2019-03-19T10:32:00.044Z,101447.80
2019-03-19T10:33:03.956Z,101447.53
2019-03-19T10:34:08.226Z,101448.14
2019-03-19T10:35:12.482Z,101446.47
2019-03-19T10:36:16.384Z,101444.94
2019-03-19T10:37:20.724Z,101445.94
2019-03-19T10:38:24.817Z,101452.64
2019-03-19T10:39:29.177Z,101452.39
2019-03-19T10:40:33.020Z,101452.97
2019-03-19T10:41:37.113Z,101452.61
2019-03-19T10:42:41.366Z,101452.72
2019-03-19T10:43:45.523Z,101452.42
2019-03-19T10:44:49.884Z,101452.42
2019-03-19T10:45:54.124Z,101453.31
2019-03-19T10:46:58.731Z,101447.94
2019-03-19T10:48:02.642Z,101450.14
2019-03-19T10:49:06.652Z,101449.58
2019-03-19T10:50:16.281Z,101447.72
2019-03-19T10:51:20.364Z,101445.27
2019-03-19T10:52:24.523Z,101447.05
2019-03-19T10:53:28.856Z,101439.03
2019-03-19T10:54:32.957Z,101443.55
2019-03-19T10:55:37.182Z,101439.38
2019-03-19T10:56:41.415Z,101436.99
2019-03-19T10:57:45.414Z,101406.84
2019-03-19T10:58:49.506Z,101437.92
2019-03-19T10:59:55.882Z,101438.24
2019-03-19T11:00:59.871Z,101442.23
2019-03-19T11:02:04.122Z,101439.88
2019-03-19T11:03:08.104Z,101436.33
2019-03-19T11:04:12.031Z,101445.39
2019-03-19T11:05:16.605Z,101438.19
2019-03-19T11:06:20.767Z,101437.27
2019-03-19T11:07:24.851Z,101442.64
2019-03-19T11:08:28.697Z,101443.89
2019-03-19T11:09:32.711Z,101446.84
2019-03-19T11:10:36.695Z,101448.73
2019-03-19T11:11:40.861Z,101441.38
2019-03-19T11:12:44.872Z,101442.62
2019-03-19T11:13:48.787Z,101446.95
2019-03-19T11:14:52.639Z,101444.50
2019-03-19T11:15:56.620Z,101449.58
2019-03-19T11:17:00.785Z,101450.33
2019-03-19T11:18:05.076Z,101446.41
2019-03-19T11:19:08.987Z,101450.54
2019-03-19T11:20:14.763Z,101448.69
2019-03-19T11:21:18.996Z,101453.92
2019-03-19T11:22:23.473Z,101448.55
2019-03-19T11:23:27.563Z,101450.36
2019-03-19T11:24:31.925Z,101454.75
2019-03-19T11:25:36.350Z,101450.19
2019-03-19T11:26:40.594Z,101458.56
2019-03-19T11:27:44.756Z,101454.00
2019-03-19T11:28:48.981Z,101455.67
2019-03-19T11:29:59.668Z,101451.39
2019-03-19T11:30:58.804Z,101454.92
2019-03-19T11:32:02.711Z,101453.73
2019-03-19T11:33:06.691Z,101458.58
2019-03-19T11:34:10.788Z,101453.63
2019-03-19T11:35:15.272Z,101457.95
2019-03-19T11:36:19.428Z,101457.00
2019-03-19T11:37:23.418Z,101463.53
2019-03-19T11:38:27.769Z,101464.07
2019-03-19T11:39:31.599Z,101461.94
2019-03-19T11:40:36.297Z,101457.48
2019-03-19T11:41:40.313Z,101456.70
2019-03-19T11:42:44.538Z,101459.48
2019-03-19T11:43:48.456Z,101460.56
2019-03-19T11:44:52.307Z,101449.79
2019-03-19T11:45:56.293Z,101446.15
2019-03-19T11:47:00.285Z,101443.02
2019-03-19T11:48:04.469Z,101448.90
2019-03-19T11:49:08.950Z,101450.61
2019-03-19T11:50:15.690Z,101445.94
2019-03-19T11:51:19.679Z,101445.67
2019-03-19T11:52:24.014Z,101445.48
2019-03-19T11:53:28.492Z,101447.66
2019-03-19T11:54:32.580Z,101439.83
2019-03-19T11:55:36.952Z,101442.39
2019-03-19T11:56:41.381Z,101436.34
2019-03-19T11:57:45.872Z,101434.37
2019-03-19T11:58:49.976Z,101429.71
2019-03-19T11:59:53.908Z,101432.23
2019-03-19T12:00:59.757Z,101427.65
2019-03-19T12:02:03.916Z,101428.47
2019-03-19T12:03:15.285Z,101425.24
2019-03-19T12:04:13.787Z,101428.72
2019-03-19T12:05:17.784Z,101423.86
2019-03-19T12:06:22.144Z,101427.67
2019-03-19T12:07:26.322Z,101426.73
2019-03-19T12:08:30.555Z,101429.45
2019-03-19T12:09:34.636Z,101433.44
2019-03-19T12:10:38.816Z,101426.58
2019-03-19T12:11:43.151Z,101429.59
2019-03-19T12:12:47.248Z,101424.05
2019-03-19T12:13:51.662Z,101419.84
2019-03-19T12:14:55.754Z,101427.09
2019-03-19T12:15:59.955Z,101424.38
2019-03-19T12:17:04.198Z,101424.00
2019-03-19T12:18:08.451Z,101432.02
2019-03-19T12:19:12.625Z,101428.88
2019-03-19T12:20:16.821Z,101426.59
2019-03-19T12:21:20.668Z,101432.44
2019-03-19T12:22:24.647Z,101429.42
2019-03-19T12:23:29.061Z,101436.42
2019-03-19T12:24:33.252Z,101434.31
2019-03-19T12:25:37.766Z,101436.98
2019-03-19T12:26:41.859Z,101437.56
2019-03-19T12:27:46.277Z,101434.89
2019-03-19T12:28:50.614Z,101435.83
2019-03-19T12:29:54.451Z,101437.31
2019-03-19T12:30:58.401Z,101429.51
2019-03-19T12:32:02.633Z,101434.42
2019-03-19T12:33:06.615Z,101436.89
2019-03-19T12:34:10.451Z,101437.36
2019-03-19T12:35:15.402Z,101435.06
2019-03-19T12:36:19.500Z,101432.69
2019-03-19T12:37:23.409Z,101435.02
2019-03-19T12:38:27.572Z,101436.58
2019-03-19T12:39:32.073Z,101431.24